YMAV/AVV METAR and TAF weather

Enter ICAO airport designator
Station Type Date Time Source
YMAV METAR 2024/05/28 22:00 UTC NOAA

YMAV 282200Z AUTO 00000KT 9999 // NCD 03/02 Q1024 RF00.0/000.0


Station Type Date Time Source
YMAV Decoded METAR 2024/05/28 22:00 UTC NOAA

Avalon, Avalon Airport, Australia (YMAV) 38-02S 144-29E
May 28, 2024 - 06:00 PM EDT / 2024.05.28 2200 UTC
Wind: Calm:0
Visibility: greater than 7 mile(s):0
Temperature: 37 F (3 C)
Dew Point: 35 F (2 C)
Relative Humidity: 93%
Pressure (altimeter): 30.24 in. Hg (1024 hPa)
ob: YMAV 282200Z AUTO 00000KT 9999 // NCD 03/02 Q1024 RF00.0/000.0
cycle: 22

Station Type Date Time Source
YMAV TAF 2024/05/28 18:36 UTC NOAA